TimeCDT,TemperatureF,Dew PointF,Humidity,Sea Level PressureIn,VisibilityMPH,Wind Direction,Wind SpeedMPH,Gust SpeedMPH,PrecipitationIn,Events,Conditions,WindDirDegrees,DateUTC
12:58 AM,43.2,38.7,84,29.93,10.0,SSW,5.8,-,N/A,,Clear,210,2013-10-06 05:58:00
1:58 AM,45.1,39.7,81,29.91,10.0,SW,5.8,-,N/A,,Clear,230,2013-10-06 06:58:00
2:58 AM,46.8,36.9,68,29.89,10.0,West,11.5,-,N/A,,Clear,260,2013-10-06 07:58:00
3:58 AM,45.5,36.0,69,29.89,10.0,WSW,10.4,-,N/A,,Clear,250,2013-10-06 08:58:00
4:58 AM,43.2,36.1,76,29.88,10.0,SW,9.2,-,N/A,,Clear,230,2013-10-06 09:58:00
5:58 AM,43.2,35.4,74,29.89,10.0,SW,9.2,-,N/A,,Clear,230,2013-10-06 10:58:00
6:58 AM,42.8,35.6,76,29.89,10.0,SW,8.1,-,N/A,,Clear,220,2013-10-06 11:58:00
7:58 AM,43.9,36.3,75,29.90,10.0,WSW,11.5,-,N/A,,Mostly Cloudy,240,2013-10-06 12:58:00
8:58 AM,45.7,37.6,73,29.92,10.0,West,11.5,-,N/A,,Overcast,260,2013-10-06 13:58:00
9:58 AM,49.1,38.3,66,29.93,10.0,West,13.8,-,N/A,,Overcast,270,2013-10-06 14:58:00
10:38 AM,51.8,39.2,62,29.91,10.0,WSW,11.5,-,N/A,,Overcast,250,2013-10-06 15:38:00
10:43 AM,51.8,39.2,62,29.91,10.0,West,13.8,-,N/A,,Overcast,270,2013-10-06 15:43:00
10:58 AM,51.1,39.0,63,29.93,10.0,West,12.7,18.4,N/A,,Overcast,260,2013-10-06 15:58:00
11:58 AM,50.7,39.0,64,29.94,10.0,West,12.7,-,N/A,,Overcast,270,2013-10-06 16:58:00
12:58 PM,52.7,39.6,61,29.93,10.0,West,16.1,-,N/A,,Overcast,280,2013-10-06 17:58:00
1:58 PM,56.3,39.0,52,29.91,10.0,West,13.8,-,N/A,,Mostly Cloudy,270,2013-10-06 18:58:00
2:58 PM,58.1,40.8,53,29.89,10.0,West,17.3,24.2,N/A,,Mostly Cloudy,270,2013-10-06 19:58:00
3:58 PM,58.8,39.7,49,29.89,10.0,West,15.0,20.7,N/A,,Scattered Clouds,270,2013-10-06 20:58:00
4:58 PM,59.9,40.8,49,29.89,10.0,West,17.3,-,N/A,,Overcast,260,2013-10-06 21:58:00
5:58 PM,58.5,41.7,54,29.90,10.0,West,12.7,-,N/A,,Overcast,260,2013-10-06 22:58:00
6:58 PM,57.9,42.8,57,29.91,10.0,West,12.7,-,N/A,,Overcast,280,2013-10-06 23:58:00
7:58 PM,56.8,44.6,64,29.93,10.0,WNW,15.0,19.6,N/A,,Overcast,300,2013-10-07 00:58:00
8:58 PM,53.8,42.6,66,29.96,10.0,WNW,15.0,-,N/A,,Partly Cloudy,300,2013-10-07 01:58:00
9:58 PM,51.6,42.8,72,29.98,10.0,NW,11.5,-,N/A,,Partly Cloudy,310,2013-10-07 02:58:00
10:58 PM,49.5,43.0,78,29.99,10.0,NW,10.4,-,N/A,,Clear,320,2013-10-07 03:58:00
11:58 PM,47.5,43.2,85,30.01,10.0,West,6.9,-,N/A,,Clear,280,2013-10-07 04:58:00